| time (UTC) | temp F | wind direction | speed knots | gust knots | rain 1hr in | rain 24hr in | rain mn in | humidity % | barometer mb |
| 20260831170028 | 93 | 127 | 5.2 | 8.7 | 0.00 | 0.00 | 0.00 | 48 | 1009.3 |
| 20260831164523 | 92 | 169 | 3.5 | 7.8 | 0.00 | 0.00 | 0.00 | 51 | 1009.3 |
| 20260831163021 | 91 | 156 | 5.2 | 9.6 | 0.00 | 0.00 | 0.00 | 51 | 1009.4 |
| 20260831161534 | 90 | 105 | 4.3 | 11.3 | 0.00 | 0.00 | 0.00 | 52 | 1009.4 |
| 20260831160019 | 90 | 256 | 4.3 | 9.6 | 0.00 | 0.00 | 0.00 | 55 | 1009.4 |
| 20260831154513 | 89 | 272 | 1.7 | 7.0 | 0.00 | 0.00 | 0.00 | 60 | 1009.3 |
| 20260831153010 | 88 | 248 | 0.9 | 7.0 | 0.00 | 0.00 | 0.00 | 65 | 1009.2 |
| 20260831151506 | 87 | 259 | 3.5 | 8.7 | 0.00 | 0.00 | 0.00 | 67 | 1009.1 |
| 20260831150002 | 85 | 261 | 2.6 | 7.8 | 0.00 | 0.00 | 0.00 | 72 | 1009.1 |
| 20260831144603 | 85 | 265 | 6.1 | 9.6 | 0.00 | 0.00 | 0.00 | 73 | 1009.2 |
| 20260831143057 | 84 | 192 | 4.3 | 8.7 | 0.00 | 0.00 | 0.00 | 75 | 1009.0 |
| 20260831141555 | 83 | 216 | 4.3 | 7.8 | 0.00 | 0.00 | 0.00 | 78 | 1009.0 |
| 20260831140055 | 82 | 248 | 3.5 | 7.8 | 0.00 | 0.00 | 0.00 | 80 | 1008.9 |
| 20260831134559 | 81 | 193 | 2.6 | 7.0 | 0.00 | 0.00 | 0.00 | 83 | 1008.9 |
| 20260831133051 | 80 | 140 | 2.6 | 6.1 | 0.00 | 0.00 | 0.00 | 84 | 1008.7 |
| 20260831131558 | 78 | 158 | 0.0 | 5.2 | 0.00 | 0.00 | 0.00 | 87 | 1008.6 |
| 20260831130048 | 78 | 145 | 0.0 | 3.5 | 0.00 | 0.00 | 0.00 | 88 | 1008.4 |
| 20260831124544 | 0 | 0.0 | 0.0 | 0.00 | 0.00 | 0.00 | 1008.3 | ||
| 20260831123043 | 0 | 0.0 | 0.0 | 0.00 | 0.00 | 0.00 | 1008.2 | ||
| 20260831121535 | 0 | 0.0 | 0.0 | 0.00 | 0.00 | 0.00 | 1008.1 | ||
| 20260831120030 | 0 | 0.0 | 0.0 | 0.00 | 0.00 | 0.00 | 1007.9 | ||
| 20260831114526 | 0 | 0.0 | 0.0 | 0.00 | 0.00 | 0.00 | 1007.7 | ||
| 20260831113022 | 0 | 0.0 | 0.0 | 0.00 | 0.00 | 0.00 | 1007.6 | ||
| 20260831111516 | 0 | 0.0 | 0.0 | 0.00 | 0.00 | 0.00 | 1007.5 | ||
| 20260831110014 | 0 | 0.0 | 0.0 | 0.00 | 0.00 | 0.00 | 1007.3 | ||
| 20260831104518 | 0 | 0.0 | 0.0 | 0.00 | 0.00 | 0.00 | 1007.4 | ||
| 20260831103008 | 0 | 0.0 | 0.0 | 0.00 | 0.00 | 0.00 | 1007.4 | ||
| 20260831101559 | 0 | 0.0 | 0.0 | 0.00 | 0.00 | 0.00 | 1007.3 | ||
| 20260831100107 | 0 | 0.0 | 0.0 | 0.00 | 0.00 | 0.00 | 1007.4 | ||
| 20260831094550 | 77 | 151 | 1.7 | 4.3 | 0.00 | 0.00 | 0.00 | 81 | 1007.2 |
| 20260831093055 | 78 | 169 | 1.7 | 5.2 | 0.00 | 0.00 | 0.00 | 82 | 1007.2 |
| 20260831091546 | 78 | 170 | 1.7 | 5.2 | 0.00 | 0.00 | 0.00 | 80 | 1007.2 |
| 20260831090047 | 79 | 167 | 2.6 | 5.2 | 0.00 | 0.00 | 0.00 | 78 | 1007.2 |
| 20260831084539 | 79 | 152 | 2.6 | 4.3 | 0.00 | 0.00 | 0.00 | 76 | 1007.1 |
| 20260831083050 | 80 | 115 | 1.7 | 5.2 | 0.00 | 0.00 | 0.00 | 75 | 1007.1 |
| 20260831081535 | 80 | 162 | 1.7 | 5.2 | 0.00 | 0.00 | 0.00 | 74 | 1007.0 |
| 20260831080054 | 81 | 142 | 2.6 | 5.2 | 0.00 | 0.00 | 0.00 | 73 | 1007.0 |
| 20260831074531 | 81 | 161 | 2.6 | 6.1 | 0.00 | 0.00 | 0.00 | 72 | 1007.1 |
| 20260831073027 | 82 | 148 | 3.5 | 7.8 | 0.00 | 0.00 | 0.00 | 71 | 1007.3 |
| 20260831071540 | 83 | 147 | 1.7 | 5.2 | 0.00 | 0.00 | 0.00 | 70 | 1007.3 |
| 20260831070024 | 83 | 150 | 3.5 | 7.8 | 0.00 | 0.00 | 0.00 | 69 | 1007.3 |
| 20260831064521 | 83 | 174 | 4.3 | 8.7 | 0.00 | 0.00 | 0.00 | 68 | 1007.2 |
| 20260831063018 | 83 | 167 | 3.5 | 5.2 | 0.00 | 0.00 | 0.00 | 68 | 1007.1 |
| 20260831061517 | 83 | 179 | 1.7 | 5.2 | 0.00 | 0.00 | 0.00 | 67 | 1007.1 |
| 20260831060015 | 83 | 183 | 2.6 | 6.1 | 0.00 | 0.00 | 0.00 | 65 | 1007.1 |
| 20260831054514 | 83 | 176 | 3.5 | 7.0 | 0.00 | 0.00 | 0.00 | 63 | 1007.2 |
| 20260831053012 | 84 | 120 | 1.7 | 6.1 | 0.00 | 0.00 | 0.00 | 62 | 1007.2 |
| 20260831051516 | 84 | 141 | 2.6 | 5.2 | 0.00 | 0.00 | 0.00 | 61 | 1007.0 |
| 20260831050008 | 84 | 123 | 2.6 | 6.1 | 0.00 | 0.00 | 0.00 | 60 | 1007.0 |
| 20260831044508 | 83 | 160 | 1.7 | 4.3 | 0.00 | 0.00 | 0.00 | 59 | 1007.0 |
| 20260831043006 | 84 | 158 | 1.7 | 4.3 | 0.00 | 0.00 | 0.00 | 57 | 1006.8 |
| 20260831041510 | 84 | 153 | 2.6 | 6.1 | 0.00 | 0.00 | 0.00 | 56 | 1006.7 |
| 20260831040006 | 84 | 114 | 3.5 | 7.0 | 0.00 | 0.00 | 0.00 | 55 | 1006.6 |
| 20260831034505 | 85 | 136 | 3.5 | 6.1 | 0.00 | 0.00 | 0.00 | 54 | 1006.4 |
| 20260831033012 | 85 | 134 | 2.6 | 4.3 | 0.00 | 0.00 | 0.00 | 53 | 1006.2 |
| 20260831031503 | 86 | 146 | 1.7 | 5.2 | 0.00 | 0.00 | 0.00 | 52 | 1006.1 |
| 20260831030004 | 86 | 125 | 1.7 | 3.5 | 0.00 | 0.00 | 0.00 | 52 | 1006.0 |
| 20260831024503 | 86 | 150 | 1.7 | 2.6 | 0.00 | 0.00 | 0.00 | 50 | 1005.8 |
| 20260831023006 | 87 | 124 | 0.0 | 2.6 | 0.00 | 0.00 | 0.00 | 49 | 1005.6 |
| 20260831021502 | 88 | 125 | 0.9 | 2.6 | 0.00 | 0.00 | 0.00 | 48 | 1005.4 |
| 20260831020002 | 89 | 141 | 0.9 | 3.5 | 0.00 | 0.00 | 0.00 | 46 | 1005.3 |
| 20260831014501 | 90 | 148 | 0.0 | 1.7 | 0.00 | 0.00 | 0.00 | 45 | 1005.1 |
| 20260831013100 | 91 | 127 | 0.9 | 2.6 | 0.00 | 0.00 | 0.00 | 44 | 1004.9 |
| 20260831011600 | 92 | 119 | 0.0 | 4.3 | 0.00 | 0.00 | 0.00 | 42 | 1004.8 |
| 20260831010114 | 93 | 134 | 2.6 | 6.1 | 0.00 | 0.00 | 0.00 | 41 | 1004.7 |
| 20260831004602 | 94 | 126 | 2.6 | 7.0 | 0.00 | 0.00 | 0.00 | 40 | 1004.7 |
| 20260831003057 | 95 | 129 | 5.2 | 10.4 | 0.00 | 0.00 | 0.00 | 38 | 1004.5 |
| 20260831001556 | 96 | 127 | 6.1 | 11.3 | 0.00 | 0.00 | 0.00 | 38 | 1004.6 |
| 20260831000104 | 97 | 106 | 5.2 | 9.6 | 0.00 | 0.00 | 0.00 | 36 | 1004.6 |
| 20260830234601 | 97 | 129 | 5.2 | 11.3 | 0.00 | 0.00 | 0.00 | 35 | 1004.7 |
| 20260830233054 | 98 | 117 | 4.3 | 11.3 | 0.00 | 0.00 | 0.00 | 35 | 1004.6 |
| 20260830231555 | 98 | 152 | 4.3 | 10.4 | 0.00 | 0.00 | 0.00 | 36 | 1004.8 |
| 20260830230054 | 97 | 117 | 3.5 | 9.6 | 0.00 | 0.00 | 0.00 | 36 | 1004.8 |
| 20260830224552 | 97 | 127 | 3.5 | 11.3 | 0.00 | 0.00 | 0.00 | 36 | 1004.8 |
| 20260830223051 | 97 | 135 | 6.1 | 11.3 | 0.00 | 0.00 | 0.00 | 37 | 1004.9 |
| 20260830221550 | 99 | 134 | 4.3 | 13.0 | 0.00 | 0.00 | 0.00 | 33 | 1004.9 |
| 20260830220050 | 99 | 143 | 3.5 | 9.6 | 0.00 | 0.00 | 0.00 | 34 | 1005.0 |
| 20260830214548 | 98 | 146 | 3.5 | 9.6 | 0.00 | 0.00 | 0.00 | 33 | 1005.0 |
| 20260830213101 | 99 | 97 | 5.2 | 10.4 | 0.00 | 0.00 | 0.00 | 31 | 1005.2 |
| 20260830211543 | 98 | 139 | 3.5 | 7.8 | 0.00 | 0.00 | 0.00 | 33 | 1005.4 |
| 20260830210042 | 98 | 128 | 3.5 | 9.6 | 0.00 | 0.00 | 0.00 | 35 | 1005.5 |
| 20260830204543 | 98 | 111 | 5.2 | 11.3 | 0.00 | 0.00 | 0.00 | 33 | 1005.8 |
| 20260830203039 | 99 | 158 | 7.0 | 11.3 | 0.00 | 0.00 | 0.00 | 33 | 1006.0 |
| 20260830201537 | 98 | 210 | 3.5 | 11.3 | 0.00 | 0.00 | 0.00 | 35 | 1006.1 |
| 20260830200035 | 98 | 226 | 4.3 | 14.8 | 0.00 | 0.00 | 0.00 | 34 | 1006.3 |
| 20260830194535 | 98 | 165 | 5.2 | 11.3 | 0.00 | 0.00 | 0.00 | 34 | 1006.5 |
| 20260830193034 | 98 | 155 | 6.1 | 11.3 | 0.00 | 0.00 | 0.00 | 37 | 1006.8 |
| 20260830191533 | 98 | 146 | 4.3 | 7.8 | 0.00 | 0.00 | 0.00 | 38 | 1007.0 |
| 20260830190025 | 96 | 117 | 4.3 | 11.3 | 0.00 | 0.00 | 0.00 | 39 | 1007.3 |
| 20260830184535 | 97 | 160 | 2.6 | 10.4 | 0.00 | 0.00 | 0.00 | 38 | 1007.4 |
| 20260830183022 | 97 | 113 | 3.5 | 11.3 | 0.00 | 0.00 | 0.00 | 41 | 1007.6 |
| 20260830181520 | 96 | 175 | 5.2 | 12.2 | 0.00 | 0.00 | 0.00 | 40 | 1007.9 |
| 20260830180017 | 95 | 139 | 7.8 | 13.0 | 0.00 | 0.00 | 0.00 | 43 | 1008.2 |
| 20260830174517 | 94 | 132 | 4.3 | 12.2 | 0.00 | 0.00 | 0.00 | 45 | 1008.4 |
| 20260830173012 | 94 | 153 | 5.2 | 10.4 | 0.00 | 0.00 | 0.00 | 45 | 1008.7 |
| 20260830171510 | 93 | 139 | 5.2 | 8.7 | 0.00 | 0.00 | 0.00 | 47 | 1009.0 |